Time;durP1;ratioP1;P1;durP2;ratioP2;P2;SDS_P1;SDS_P2;PMS_P1;PMS_P2;Temp;Humidity;BMP_temperature;BMP_pressure;BME280_temperature;BME280_humidity;BME280_pressure;Samples;Min_cycle;Max_cycle;Signal;HPM_P1;HPM_P2
2021/12/13 00:03:28;;;;;;;;;76.67;63.67;;;;;11.91;67.33;100633.84;146591;636;46020;-76
2021/12/13 00:06:26;;;;;;;;;69.75;54.00;;;;;11.94;68.17;100640.06;146604;572;46012;-77
2021/12/13 00:09:22;;;;;;;;;71.75;57.75;;;;;11.97;69.05;100642.81;146603;572;46021;-76
2021/12/13 00:12:15;;;;;;;;;74.00;59.00;;;;;11.96;68.57;100648.84;146601;606;46016;-72
2021/12/13 00:15:17;;;;;;;;;67.25;53.50;;;;;11.98;68.70;100647.16;146604;582;46021;-72
2021/12/13 00:18:11;;;;;;;;;68.50;52.50;;;;;11.95;69.92;100647.03;146603;570;46016;-75
2021/12/13 00:21:14;;;;;;;;;72.00;59.00;;;;;11.93;70.32;100650.37;146606;700;46020;-80
2021/12/13 00:24:16;;;;;;;;;67.00;52.00;;;;;11.86;69.97;100646.63;146603;630;46016;-79
2021/12/13 00:27:21;;;;;;;;;65.50;51.50;;;;;11.86;69.15;100643.13;146607;583;46010;-79
2021/12/13 00:30:50;;;;;;;;;68.50;55.50;;;;;10.82;69.20;100466.25;146599;574;47016;-79
2021/12/13 00:34:13;;;;;;;;;78.67;71.00;;;;;11.95;69.50;100649.63;146592;576;46034;-82
2021/12/13 00:37:39;;;;;;;;;91.00;81.67;;;;;10.79;69.05;100439.28;146611;622;46916;-81
2021/12/13 00:40:50;;;;;;;;;71.00;55.50;;;;;12.05;70.19;100653.53;146606;572;46022;-81
2021/12/13 00:43:54;;;;;;;;;68.75;55.00;;;;;12.06;70.87;100646.66;146601;659;46016;-82
2021/12/13 00:46:49;;;;;;;;;70.50;54.50;;;;;12.07;70.69;100661.41;146604;625;46012;-81
2021/12/13 00:49:44;;;;;;;;;59.25;47.25;;;;;12.06;69.88;100660.53;146601;572;46012;-82
2021/12/13 00:52:39;;;;;;;;;61.25;47.25;;;;;12.09;70.71;100665.84;146604;583;46021;-76
2021/12/13 00:55:36;;;;;;;;;44.50;37.75;;;;;12.12;69.80;100665.06;146602;611;46016;-76
2021/12/13 00:58:28;;;;;;;;;46.25;38.00;;;;;12.11;71.73;100663.31;146602;572;46918;-76
2021/12/13 01:01:20;;;;;;;;;54.00;43.00;;;;;12.08;71.02;100661.44;146603;591;46012;-77
2021/12/13 01:04:18;;;;;;;;;51.50;40.50;;;;;12.04;70.58;100666.47;146592;587;46010;-75
2021/12/13 01:08:00;;;;;;;;;47.25;39.00;;;;;10.83;69.40;100462.81;146602;623;46017;-76
2021/12/13 01:11:22;;;;;;;;;31.50;29.50;;;;;11.97;69.24;100667.91;146603;573;46020;-75
2021/12/13 01:15:13;;;;;;;;;47.50;36.75;;;;;10.78;68.81;100477.31;146603;649;46918;-76
2021/12/13 01:18:31;;;;;;;;;45.50;36.00;;;;;11.97;70.82;100694.78;146605;641;46010;-77
2021/12/13 01:21:40;;;;;;;;;39.00;33.50;;;;;11.98;70.45;100687.87;146604;637;46017;-78
2021/12/13 01:25:03;;;;;;;;;16.75;14.75;;;;;11.98;70.24;100690.47;146607;613;46010;-80
2021/12/13 01:28:05;;;;;;;;;15.75;14.75;;;;;11.96;69.30;100684.28;146599;577;46018;-71
2021/12/13 01:31:02;;;;;;;;;24.50;22.00;;;;;11.95;69.52;100688.59;146604;611;46010;-71
2021/12/13 01:33:56;;;;;;;;;21.50;21.50;;;;;11.95;70.31;100686.00;146594;620;48918;-77
2021/12/13 01:37:08;;;;;;;;;19.00;18.50;;;;;11.91;69.78;100678.91;146591;606;46021;-78
2021/12/13 01:40:00;;;;;;;;;13.75;12.75;;;;;11.88;69.87;100668.38;146603;631;46012;-79
2021/12/13 01:43:10;;;;;;;;;11.50;10.50;;;;;11.87;69.17;100670.87;146606;599;45918;-79
2021/12/13 01:46:03;;;;;;;;;15.00;13.75;;;;;11.80;70.34;100660.19;146600;617;46016;-80
2021/12/13 01:48:57;;;;;;;;;17.75;15.75;;;;;11.68;73.33;100661.34;146602;592;46020;-74
2021/12/13 01:51:51;;;;;;;;;15.00;13.75;;;;;11.55;72.41;100665.97;146603;564;46014;-76
2021/12/13 01:54:44;;;;;;;;;14.75;14.25;;;;;11.46;72.06;100665.53;146601;627;46020;-76
2021/12/13 01:57:56;;;;;;;;;27.25;25.75;;;;;11.44;72.33;100666.31;146592;569;46016;-76
2021/12/13 02:04:14;;;;;;;;;20.75;20.75;;;;;11.50;70.89;100656.22;146603;571;46012;-73
2021/12/13 02:07:08;;;;;;;;;23.25;21.00;;;;;11.56;72.37;100654.78;146592;600;46021;-73
2021/12/13 02:10:01;;;;;;;;;18.50;15.75;;;;;11.60;72.32;100658.41;146603;624;46016;-74
2021/12/13 02:12:58;;;;;;;;;24.75;21.00;;;;;11.64;72.11;100657.72;146605;703;46020;-73
2021/12/13 02:19:11;;;;;;;;;10.00;8.00;;;;;11.55;71.86;100658.19;146602;581;46020;-73
2021/12/13 02:22:13;;;;;;;;;8.75;8.50;;;;;11.50;70.42;100672.69;146603;573;46016;-72
2021/12/13 02:25:19;;;;;;;;;7.75;7.00;;;;;11.42;70.34;100668.81;146607;683;45020;-75
2021/12/13 02:28:27;;;;;;;;;8.25;7.00;;;;;11.37;70.26;100669.41;146605;614;46918;-75
2021/12/13 02:31:30;;;;;;;;;9.75;7.00;;;;;11.33;70.21;100674.47;146607;565;46010;-75
2021/12/13 02:34:23;;;;;;;;;9.00;7.00;;;;;11.33;70.48;100676.19;146603;585;46012;-74
2021/12/13 02:37:17;;;;;;;;;7.00;6.75;;;;;10.33;71.14;100505.41;146598;620;46020;-78
2021/12/13 02:40:10;;;;;;;;;8.00;8.00;;;;;11.30;71.35;100678.63;146606;680;46010;-78
2021/12/13 02:43:03;;;;;;;;;10.00;7.50;;;;;11.27;70.43;100683.66;146603;638;46021;-78
2021/12/13 02:46:00;;;;;;;;;8.00;7.00;;;;;11.19;70.66;100666.88;146604;595;46016;-78
2021/12/13 02:49:02;;;;;;;;;3.00;3.00;;;;;11.31;69.79;100691.69;146602;576;46020;-75
2021/12/13 02:52:02;;;;;;;;;3.00;2.00;;;;;11.32;68.71;100684.78;146603;636;46016;-76
2021/12/13 02:55:01;;;;;;;;;2.00;2.00;;;;;11.29;69.25;100687.25;146603;628;46020;-75
2021/12/13 02:57:57;;;;;;;;;2.00;1.50;;;;;11.24;68.07;100684.41;146604;573;46017;-75
2021/12/13 03:01:15;;;;;;;;;1.00;1.00;;;;;11.21;67.68;100684.25;146604;575;46020;-75
2021/12/13 03:04:11;;;;;;;;;1.25;1.25;;;;;11.23;69.50;100689.53;146605;652;46916;-74
2021/12/13 03:07:19;;;;;;;;;2.75;2.75;;;;;11.17;68.71;100695.31;146598;669;46010;-72
2021/12/13 03:10:19;;;;;;;;;3.50;2.00;;;;;11.08;68.84;100690.56;146604;569;45016;-70
2021/12/13 03:13:12;;;;;;;;;4.75;3.75;;;;;11.05;68.79;100689.53;146606;625;46021;-71
2021/12/13 03:16:13;;;;;;;;;3.25;3.00;;;;;11.01;68.85;100690.22;146606;581;46012;-79
2021/12/13 03:19:10;;;;;;;;;2.00;2.00;;;;;10.99;68.29;100686.66;146605;611;46013;-76
2021/12/13 03:22:39;;;;;;;;;3.00;3.00;;;;;11.01;67.89;100692.81;146602;673;46016;-74
2021/12/13 03:26:07;;;;;;;;;1.75;1.75;;;;;11.00;67.69;100702.31;146606;642;46028;-74
2021/12/13 03:29:22;;;;;;;;;3.00;2.00;;;;;11.00;68.94;100698.81;146605;704;46012;-74
2021/12/13 03:32:19;;;;;;;;;3.00;3.00;;;;;11.01;69.09;100696.28;146604;693;46020;-74
2021/12/13 03:35:26;;;;;;;;;2.75;2.75;;;;;11.00;68.69;100704.00;146605;600;46012;-75
2021/12/13 03:38:58;;;;;;;;;4.75;4.75;;;;;9.79;68.71;100506.13;146598;569;46010;-75
2021/12/13 03:41:53;;;;;;;;;3.25;3.00;;;;;10.94;69.94;100716.69;146604;585;46013;-76
2021/12/13 03:44:50;;;;;;;;;4.75;4.00;;;;;10.88;70.02;100739.72;146604;576;46010;-78
2021/12/13 03:47:49;;;;;;;;;2.00;2.00;;;;;10.80;70.20;100734.12;146605;627;46016;-77
2021/12/13 03:50:45;;;;;;;;;2.25;2.25;;;;;10.77;69.78;100736.56;146604;644;46021;-77
2021/12/13 03:53:38;;;;;;;;;3.00;3.00;;;;;10.71;68.95;100739.75;146604;563;46012;-76
2021/12/13 03:56:39;;;;;;;;;5.50;3.50;;;;;10.68;68.88;100729.22;146604;591;46011;-76
2021/12/13 03:59:34;;;;;;;;;3.50;3.50;;;;;10.70;69.14;100737.97;146604;576;46016;-77
2021/12/13 04:02:36;;;;;;;;;3.00;3.00;;;;;10.70;69.17;100744.88;146602;565;46020;-74
2021/12/13 04:05:32;;;;;;;;;3.00;3.00;;;;;10.67;69.74;100742.13;146605;589;46012;-74
2021/12/13 04:08:25;;;;;;;;;4.00;2.25;;;;;10.64;69.30;100756.69;146600;723;45032;-74
2021/12/13 04:11:18;;;;;;;;;31.50;27.25;;;;;10.58;70.83;100758.97;146606;616;46014;-73
2021/12/13 04:14:16;;;;;;;;;27.50;21.50;;;;;10.51;70.06;100756.00;146604;574;46020;-71
2021/12/13 04:17:45;;;;;;;;;17.00;16.00;;;;;9.26;70.11;100549.09;146602;661;46016;-70
2021/12/13 04:20:40;;;;;;;;;4.00;4.00;;;;;10.47;70.24;100767.03;146604;572;46020;-71
2021/12/13 04:23:33;;;;;;;;;3.00;3.00;;;;;10.43;69.75;100778.91;146603;576;46016;-73
2021/12/13 04:26:26;;;;;;;;;2.50;2.50;;;;;10.39;69.70;100785.63;146604;570;46021;-72
2021/12/13 04:29:25;;;;;;;;;2.00;2.00;;;;;10.38;68.84;100789.06;146603;627;46917;-73
2021/12/13 04:32:28;;;;;;;;;0.00;0.00;;;;;10.34;68.12;100783.59;146607;651;46010;-73
2021/12/13 04:35:21;;;;;;;;;1.00;1.00;;;;;10.29;68.38;100783.38;146604;593;46016;-74
2021/12/13 04:38:16;;;;;;;;;0.75;0.75;;;;;10.24;68.36;100794.28;146599;592;46010;-78
2021/12/13 04:41:10;;;;;;;;;0.00;0.00;;;;;10.18;66.94;100794.81;146602;580;47012;-72
2021/12/13 04:44:15;;;;;;;;;0.00;0.00;;;;;10.16;66.99;100797.34;146606;590;46010;-73
2021/12/13 04:47:19;;;;;;;;;0.00;0.00;;;;;10.10;67.20;100807.38;146597;588;46918;-73
2021/12/13 04:50:17;;;;;;;;;2.00;1.00;;;;;9.99;66.62;100805.00;146604;673;46021;-73
2021/12/13 04:53:10;;;;;;;;;0.75;0.75;;;;;9.86;66.89;100816.41;146607;612;45016;-73
2021/12/13 04:56:05;;;;;;;;;0.00;0.00;;;;;9.76;67.14;100808.94;146599;572;46918;-71
2021/12/13 04:59:01;;;;;;;;;0.00;0.00;;;;;9.66;67.21;100805.81;146602;567;46016;-72
2021/12/13 05:01:59;;;;;;;;;1.00;1.00;;;;;9.61;67.57;100804.66;146606;584;46012;-72
2021/12/13 05:04:57;;;;;;;;;2.00;2.00;;;;;9.61;67.72;100798.59;146604;657;46017;-72
2021/12/13 05:07:51;;;;;;;;;4.25;2.00;;;;;9.58;68.40;100801.00;146596;563;46010;-74
2021/12/13 05:10:48;;;;;;;;;3.25;2.25;;;;;9.59;68.20;100811.44;146605;612;46013;-75
2021/12/13 05:13:44;;;;;;;;;2.00;2.00;;;;;9.58;68.46;100808.78;146605;577;46010;-75
2021/12/13 05:16:58;;;;;;;;;2.00;2.00;;;;;8.68;68.08;100660.53;146602;630;46016;-76
2021/12/13 05:20:27;;;;;;;;;1.75;1.75;;;;;8.31;67.90;100603.22;146607;695;46021;-77
2021/12/13 05:23:26;;;;;;;;;2.75;2.75;;;;;9.55;68.12;100825.03;146601;697;46014;-76
2021/12/13 05:26:41;;;;;;;;;3.50;1.25;;;;;9.55;68.08;100826.72;146607;604;46010;-75
2021/12/13 05:29:40;;;;;;;;;2.00;2.00;;;;;9.60;67.56;100825.31;146606;632;46012;-76
2021/12/13 05:32:38;;;;;;;;;3.00;1.00;;;;;9.65;67.26;100818.66;146606;581;46021;-75
2021/12/13 05:35:45;;;;;;;;;2.50;1.00;;;;;9.73;66.83;100813.94;146604;612;46016;-73
2021/12/13 05:38:43;;;;;;;;;0.75;0.75;;;;;9.83;65.98;100805.88;146599;676;46010;-74
2021/12/13 05:41:36;;;;;;;;;1.00;0.00;;;;;9.91;65.80;100809.78;146607;713;46013;-74
2021/12/13 05:44:34;;;;;;;;;1.00;1.00;;;;;10.00;65.28;100831.00;146606;600;46020;-74
2021/12/13 05:47:30;;;;;;;;;2.25;2.25;;;;;10.05;65.47;100828.66;146602;596;46918;-78
2021/12/13 05:50:53;;;;;;;;;4.75;3.25;;;;;10.10;65.62;100832.41;146608;566;46010;-75
2021/12/13 05:53:50;;;;;;;;;5.00;3.00;;;;;10.15;65.71;100829.22;146603;569;46915;-74
2021/12/13 05:56:47;;;;;;;;;3.25;3.25;;;;;10.21;65.36;100825.19;146606;572;46011;-76
2021/12/13 06:00:03;;;;;;;;;3.75;3.75;;;;;10.25;64.98;100829.72;146603;565;46014;-75
2021/12/13 06:03:17;;;;;;;;;4.00;3.25;;;;;10.31;65.12;100840.47;146606;565;46010;-75
2021/12/13 06:06:19;;;;;;;;;4.00;3.00;;;;;10.30;64.69;100849.06;146606;642;46012;-76
2021/12/13 06:09:11;;;;;;;;;2.75;2.75;;;;;10.20;65.00;100859.72;146598;613;46918;-77
2021/12/13 06:12:10;;;;;;;;;4.00;3.00;;;;;10.05;64.86;100857.16;146603;699;47014;-79
2021/12/13 06:15:41;;;;;;;;;5.00;2.75;;;;;9.91;66.07;100875.41;146605;591;46020;-78
2021/12/13 06:18:48;;;;;;;;;4.00;3.50;;;;;9.76;67.60;100892.69;146603;584;46916;-79
2021/12/13 06:22:16;;;;;;;;;5.50;5.00;;;;;9.41;69.14;100864.78;146605;573;46010;-85
2021/12/13 06:25:16;;;;;;;;;7.25;7.25;;;;;9.45;70.35;100895.19;146602;589;46016;-83
2021/12/13 06:28:10;;;;;;;;;8.50;7.25;;;;;9.35;71.03;100904.13;146603;633;46010;-85
2021/12/13 06:31:12;;;;;;;;;13.25;9.75;;;;;9.26;72.11;100911.34;146602;615;46016;-83
2021/12/13 06:34:11;;;;;;;;;12.00;11.75;;;;;9.23;71.84;100922.41;146607;579;45021;-83
2021/12/13 06:37:04;;;;;;;;;11.50;10.00;;;;;9.23;72.09;100931.84;146604;593;46012;-85
2021/12/13 06:40:12;;;;;;;;;11.25;10.00;;;;;8.24;72.22;100761.25;146593;679;46021;-79
2021/12/13 06:43:07;;;;;;;;;9.25;7.75;;;;;9.20;72.83;100935.16;146603;596;46016;-79
2021/12/13 06:45:59;;;;;;;;;10.50;7.75;;;;;9.20;71.67;100935.16;146605;571;45020;-77
2021/12/13 06:48:58;;;;;;;;;7.50;7.50;;;;;9.20;72.06;100926.50;146606;563;46017;-75
2021/12/13 06:51:58;;;;;;;;;6.50;5.00;;;;;9.27;71.04;100932.94;146605;650;46918;-75
2021/12/13 06:54:53;;;;;;;;;6.25;5.50;;;;;8.59;70.58;100801.28;146604;597;46016;-71
2021/12/13 06:58:00;;;;;;;;;5.75;5.50;;;;;9.39;69.37;100925.91;146603;586;46020;-79
2021/12/13 07:01:00;;;;;;;;;3.00;3.00;;;;;9.37;68.60;100925.78;146603;575;46016;-79
2021/12/13 07:04:07;;;;;;;;;5.25;5.25;;;;;9.39;67.97;100939.72;146605;660;46012;-78
2021/12/13 07:07:12;;;;;;;;;4.50;4.50;;;;;9.40;67.51;100941.50;146599;647;46016;-79
2021/12/13 07:10:10;;;;;;;;;5.00;3.25;;;;;9.38;66.80;100950.88;146594;702;46021;-78
2021/12/13 07:13:07;;;;;;;;;7.00;4.75;;;;;9.33;66.55;100943.66;146604;595;46016;-79
2021/12/13 07:16:21;;;;;;;;;4.75;4.00;;;;;8.05;66.29;100739.44;146603;579;46020;-81
2021/12/13 07:19:30;;;;;;;;;4.00;4.00;;;;;9.17;66.42;100954.78;146602;700;46014;-79
2021/12/13 07:22:26;;;;;;;;;4.25;4.25;;;;;9.10;66.34;100958.69;146604;590;46020;-80
2021/12/13 07:25:21;;;;;;;;;4.00;4.00;;;;;9.07;66.37;100966.25;146595;573;46016;-79
2021/12/13 07:28:14;;;;;;;;;3.25;3.25;;;;;9.06;66.83;100969.63;146606;579;46010;-81
2021/12/13 07:31:12;;;;;;;;;6.00;6.00;;;;;9.06;66.62;100967.03;146605;704;46015;-73
2021/12/13 07:34:23;;;;;;;;;8.25;6.50;;;;;9.12;66.45;100974.28;146606;580;46010;-71
2021/12/13 07:37:15;;;;;;;;;7.50;5.00;;;;;9.14;66.20;100978.75;146606;595;46012;-72
2021/12/13 07:40:38;;;;;;;;;8.25;7.00;;;;;9.19;66.78;100985.13;146599;594;46011;-84
2021/12/13 07:43:44;;;;;;;;;10.75;8.00;;;;;9.24;66.87;100986.28;146604;618;46918;-79
2021/12/13 07:46:38;;;;;;;;;5.25;5.25;;;;;9.27;65.89;100990.75;146607;573;46012;-75
2021/12/13 07:49:42;;;;;;;;;7.75;6.75;;;;;9.34;66.30;100992.87;146604;604;46016;-74
2021/12/13 07:52:38;;;;;;;;;8.50;7.75;;;;;9.41;66.23;100992.47;146604;597;46020;-75
2021/12/13 07:55:33;;;;;;;;;11.25;9.25;;;;;9.43;65.98;100987.38;146603;604;46017;-72
2021/12/13 07:58:50;;;;;;;;;11.50;10.00;;;;;9.47;66.46;101000.63;146603;573;46918;-71
2021/12/13 08:02:10;;;;;;;;;13.75;11.00;;;;;9.51;66.02;101004.28;146604;610;46014;-72
2021/12/13 08:05:13;;;;;;;;;11.00;8.50;;;;;9.57;66.28;101001.16;146606;618;46010;-73
2021/12/13 08:08:08;;;;;;;;;13.25;11.50;;;;;9.64;66.28;100999.00;146603;657;46016;-73
2021/12/13 08:11:03;;;;;;;;;9.50;7.75;;;;;9.70;65.00;100994.19;146590;643;46020;-72
2021/12/13 08:14:02;;;;;;;;;8.25;7.50;;;;;9.71;64.49;101005.44;146601;673;46016;-72
2021/12/13 08:16:55;;;;;;;;;17.50;15.00;;;;;9.74;65.72;101007.31;146604;603;45021;-71
2021/12/13 08:20:00;;;;;;;;;9.50;9.00;;;;;9.75;66.85;101010.03;146605;584;46014;-75
2021/12/13 08:22:54;;;;;;;;;9.25;8.25;;;;;9.72;66.73;101012.44;146606;595;46021;-74
2021/12/13 08:25:54;;;;;;;;;10.50;9.75;;;;;9.74;66.39;101025.47;146601;591;46918;-75
2021/12/13 08:28:54;;;;;;;;;9.00;8.00;;;;;9.72;64.89;101020.19;146603;600;47020;-75
2021/12/13 08:31:50;;;;;;;;;10.00;9.00;;;;;9.73;64.60;101021.09;146604;611;46918;-77
2021/12/13 08:35:03;;;;;;;;;11.50;10.25;;;;;9.82;65.27;101024.22;146604;683;46020;-76
2021/12/13 08:38:03;;;;;;;;;11.00;11.00;;;;;9.91;65.27;101023.06;146603;674;46017;-76
2021/12/13 08:40:56;;;;;;;;;8.50;8.50;;;;;10.03;64.35;101014.19;146593;581;46010;-75
2021/12/13 08:44:02;;;;;;;;;15.25;11.00;;;;;10.18;64.88;101015.97;146602;563;46016;-71
2021/12/13 08:47:06;;;;;;;;;11.50;9.00;;;;;10.56;64.09;101011.19;146604;653;46010;-73
2021/12/13 08:50:03;;;;;;;;;18.00;13.50;;;;;11.06;63.40;101011.41;146602;583;46016;-69
2021/12/13 08:53:13;;;;;;;;;15.25;11.50;;;;;11.75;61.82;101009.81;146594;566;46021;-76
2021/12/13 08:56:23;;;;;;;;;6.75;6.75;;;;;12.32;58.40;101004.84;146605;654;46016;-82
2021/12/13 08:59:24;;;;;;;;;6.00;4.75;;;;;12.45;57.31;101012.44;146606;578;46010;-76
2021/12/13 09:02:16;;;;;;;;;5.75;5.50;;;;;12.40;57.87;101011.34;146606;614;46012;-76
2021/12/13 09:05:36;;;;;;;;;8.25;7.75;;;;;12.33;58.22;101009.22;146602;571;46020;-75
2021/12/13 09:08:46;;;;;;;;;6.00;6.00;;;;;12.27;58.30;101016.72;146601;566;46017;-74
2021/12/13 09:11:56;;;;;;;;;6.25;6.25;;;;;12.13;58.04;100999.59;146596;636;46020;-74
2021/12/13 09:14:54;;;;;;;;;7.50;6.00;;;;;11.92;58.12;101000.28;146604;583;46918;-74
2021/12/13 09:17:47;;;;;;;;;7.50;5.00;;;;;11.77;57.99;101013.37;146607;594;46010;-75
2021/12/13 09:20:47;;;;;;;;;8.00;7.00;;;;;11.66;59.10;101005.84;146603;612;46016;-75
2021/12/13 09:23:57;;;;;;;;;8.25;8.00;;;;;11.59;59.78;101001.12;146605;583;46010;-71
2021/12/13 09:26:49;;;;;;;;;10.25;8.00;;;;;11.56;59.19;101002.78;146604;584;46016;-76
2021/12/13 09:29:59;;;;;;;;;8.75;7.25;;;;;11.62;59.52;101002.22;146607;582;46020;-74
2021/12/13 09:33:02;;;;;;;;;9.50;8.50;;;;;11.68;58.57;100994.72;146599;577;46016;-73
2021/12/13 09:36:00;;;;;;;;;11.00;8.75;;;;;11.90;58.41;100991.53;146604;597;47010;-75
2021/12/13 09:39:04;;;;;;;;;9.50;7.50;;;;;12.27;57.21;100987.25;146604;669;46918;-75
2021/12/13 09:42:13;;;;;;;;;10.00;7.50;;;;;12.65;57.28;100976.97;146597;645;46020;-75
2021/12/13 09:45:08;;;;;;;;;5.25;5.25;;;;;12.98;54.04;100975.84;146606;592;46016;-73
2021/12/13 09:48:01;;;;;;;;;12.75;12.75;;;;;13.22;53.87;100965.66;146605;606;46012;-73
2021/12/13 09:50:56;;;;;;;;;9.00;6.25;;;;;13.51;54.93;100966.94;146604;638;46012;-76
2021/12/13 09:53:55;;;;;;;;;7.25;6.00;;;;;13.85;53.34;100971.88;146602;611;46020;-81
2021/12/13 09:56:53;;;;;;;;;4.50;4.50;;;;;14.19;52.01;100968.06;146604;696;46016;-76
2021/12/13 09:59:50;;;;;;;;;6.25;5.00;;;;;14.44;50.98;100962.09;146606;611;46010;-71
2021/12/13 10:02:48;;;;;;;;;7.00;7.00;;;;;14.60;50.78;100967.09;146605;630;47013;-72
2021/12/13 10:05:47;;;;;;;;;3.50;3.50;;;;;14.70;46.82;100956.22;146606;613;46010;-74
2021/12/13 10:08:49;;;;;;;;;5.50;4.00;;;;;14.78;48.10;100966.94;146602;678;46016;-72
2021/12/13 10:11:53;;;;;;;;;5.00;4.75;;;;;14.61;48.75;100966.28;146598;628;46012;-73
2021/12/13 10:14:56;;;;;;;;;6.75;5.00;;;;;14.13;48.61;100979.13;146604;703;47014;-78
2021/12/13 10:17:51;;;;;;;;;8.50;7.75;;;;;13.62;47.14;100968.31;146605;687;46011;-72
2021/12/13 10:20:54;;;;;;;;;8.50;6.00;;;;;13.25;51.27;100977.13;146604;671;46012;-71
2021/12/13 10:24:15;;;;;;;;;9.00;7.00;;;;;12.92;52.43;100981.66;146603;603;47010;-74
2021/12/13 10:27:12;;;;;;;;;13.00;12.00;;;;;12.68;52.91;100984.03;146602;595;46017;-70
2021/12/13 10:30:11;;;;;;;;;15.00;13.75;;;;;12.57;52.58;100993.03;146604;612;46020;-72
2021/12/13 10:33:05;;;;;;;;;7.75;7.50;;;;;12.48;50.52;100989.16;146605;633;46920;-76
2021/12/13 10:36:01;;;;;;;;;8.75;7.50;;;;;12.41;50.74;100989.69;146605;571;46020;-74
2021/12/13 10:39:01;;;;;;;;;8.50;8.50;;;;;12.38;52.03;100988.66;146603;599;46012;-71
2021/12/13 10:41:59;;;;;;;;;10.50;9.25;;;;;12.30;51.01;100979.59;146598;657;46924;-72
2021/12/13 10:44:51;;;;;;;;;11.50;10.25;;;;;12.19;51.03;100984.28;146600;563;46023;-71
2021/12/13 10:47:48;;;;;;;;;9.00;8.00;;;;;12.04;50.03;100978.34;146607;579;46010;-71
2021/12/13 10:50:56;;;;;;;;;7.00;7.00;;;;;11.86;50.32;100968.78;146603;571;46016;-71
2021/12/13 10:53:52;;;;;;;;;9.25;8.50;;;;;11.74;49.60;100966.47;146604;566;46013;-71
2021/12/13 10:56:53;;;;;;;;;15.00;13.00;;;;;11.66;50.24;100965.19;146604;681;46016;-71
2021/12/13 10:59:48;;;;;;;;;14.75;14.75;;;;;11.68;49.49;100957.44;146606;638;45020;-71
2021/12/13 11:02:41;;;;;;;;;11.75;11.75;;;;;11.97;49.76;100954.66;146602;592;46016;-71
2021/12/13 11:05:33;;;;;;;;;14.25;14.00;;;;;12.45;52.50;100956.94;146603;587;46020;-71
2021/12/13 11:08:28;;;;;;;;;8.25;8.00;;;;;13.03;51.76;100943.13;146601;586;47012;-70
2021/12/13 11:11:26;;;;;;;;;9.75;9.00;;;;;13.51;50.41;100936.56;146598;647;46010;-70
2021/12/13 11:14:21;;;;;;;;;12.25;11.75;;;;;13.97;47.65;100950.66;146603;577;46014;-71
2021/12/13 11:17:18;;;;;;;;;9.00;7.25;;;;;14.33;46.57;100946.91;146606;636;46011;-71
2021/12/13 11:20:24;;;;;;;;;14.00;10.00;;;;;14.64;50.54;100936.78;146603;569;46012;-70
2021/12/13 11:23:24;;;;;;;;;8.00;8.00;;;;;14.98;48.51;100933.72;146604;614;46011;-70
2021/12/13 11:26:21;;;;;;;;;14.25;12.75;;;;;15.28;47.31;100938.28;146597;566;47012;-71
2021/12/13 11:29:15;;;;;;;;;8.25;7.00;;;;;15.49;46.66;100928.59;146605;563;46020;-70
2021/12/13 11:32:59;;;;;;;;;16.50;14.00;;;;;14.85;48.38;100767.03;146604;661;46013;-71
2021/12/13 11:36:45;;;;;;;;;12.50;11.25;;;;;14.95;46.94;100754.34;146606;593;45020;-70
2021/12/13 11:40:30;;;;;;;;;11.00;9.50;;;;;15.81;45.57;100913.12;146604;599;46016;-70
2021/12/13 11:44:02;;;;;;;;;9.50;8.00;;;;;15.66;43.68;100908.25;146594;590;46020;-71
2021/12/13 11:47:38;;;;;;;;;14.75;13.25;;;;;15.53;45.95;100909.56;146599;681;46868;-72
2021/12/13 11:51:08;;;;;;;;;14.25;13.25;;;;;15.46;46.47;100907.56;146600;604;46010;-72
2021/12/13 11:54:50;;;;;;;;;14.00;12.25;;;;;13.67;47.64;100588.06;146602;634;46918;-72
2021/12/13 11:58:19;;;;;;;;;12.50;11.50;;;;;15.63;44.66;100910.75;146606;599;46010;-71
2021/12/13 12:02:11;;;;;;;;;13.75;12.50;;;;;14.82;47.45;100753.88;146606;618;45042;-70
2021/12/13 12:05:39;;;;;;;;;11.75;10.75;;;;;15.79;44.45;100906.94;146606;580;45020;-73
2021/12/13 12:09:29;;;;;;;;;7.00;4.75;;;;;14.54;45.24;100735.53;146605;575;46014;-71
2021/12/13 12:12:56;;;;;;;;;10.75;9.50;;;;;15.56;44.54;100909.66;146605;619;46020;-71
2021/12/13 12:15:51;;;;;;;;;11.50;9.75;;;;;15.64;44.91;100900.38;146604;687;45017;-71
2021/12/13 12:18:44;;;;;;;;;16.25;13.75;;;;;15.88;45.09;100908.13;146596;569;46021;-71
2021/12/13 12:22:03;;;;;;;;;10.50;10.00;;;;;15.25;44.47;100736.19;146604;571;46016;-72
2021/12/13 12:24:59;;;;;;;;;9.00;8.50;;;;;16.51;43.60;100907.50;146605;564;46012;-72
2021/12/13 12:27:52;;;;;;;;;11.75;10.75;;;;;16.74;43.00;100912.53;146604;563;47012;-71
2021/12/13 12:30:50;;;;;;;;;10.50;9.75;;;;;16.90;42.67;100899.06;146607;611;46010;-71
2021/12/13 12:33:44;;;;;;;;;8.25;8.00;;;;;16.94;41.13;100906.16;146599;592;47014;-72
2021/12/13 12:37:06;;;;;;;;;10.25;9.75;;;;;16.96;43.35;100900.97;146606;573;46012;-71
2021/12/13 12:40:33;;;;;;;;;8.25;8.00;;;;;16.69;42.67;100908.88;146604;595;46920;-72
2021/12/13 12:43:41;;;;;;;;;15.50;14.25;;;;;16.41;45.22;100894.97;146605;585;46010;-71
2021/12/13 12:46:44;;;;;;;;;10.50;9.75;;;;;16.52;43.82;100898.81;146601;610;46016;-71
2021/12/13 12:49:36;;;;;;;;;8.00;8.00;;;;;16.62;42.85;100893.00;146594;597;46010;-72
2021/12/13 12:52:30;;;;;;;;;17.00;14.75;;;;;16.88;42.57;100898.13;146603;623;46017;-71
2021/12/13 12:55:30;;;;;;;;;14.25;13.50;;;;;17.13;42.89;100898.81;146605;563;46012;-71
2021/12/13 12:58:30;;;;;;;;;13.75;13.50;;;;;16.83;41.91;100903.25;146602;589;46014;-71
2021/12/13 13:01:30;;;;;;;;;12.50;10.25;;;;;16.13;42.59;100903.69;146602;590;46021;-71
2021/12/13 13:04:29;;;;;;;;;14.50;11.75;;;;;15.41;45.03;100917.84;146601;626;46016;-71
2021/12/13 13:07:34;;;;;;;;;18.00;15.50;;;;;14.72;45.72;100914.50;146605;604;46010;-70
2021/12/13 13:13:43;;;;;;;;;13.75;13.75;;;;;13.54;50.31;100926.28;146607;627;46010;-72
2021/12/13 13:16:41;;;;;;;;;13.75;13.25;;;;;13.08;50.75;100931.16;146600;566;46017;-70
2021/12/13 13:19:47;;;;;;;;;13.00;11.50;;;;;12.66;52.06;100937.12;146592;673;46020;-71
2021/12/13 13:22:44;;;;;;;;;18.25;14.75;;;;;12.34;52.77;100935.63;146603;576;46012;-71
2021/12/13 13:25:57;;;;;;;;;16.75;15.75;;;;;12.13;54.16;100937.19;146604;582;46012;-71
2021/12/13 13:28:54;;;;;;;;;12.00;11.25;;;;;11.92;54.20;100942.22;146604;564;47012;-71
2021/12/13 13:32:00;;;;;;;;;15.25;15.25;;;;;11.78;55.64;100945.00;146604;590;46020;-71
2021/12/13 13:34:57;;;;;;;;;21.25;17.75;;;;;11.70;55.02;100945.44;146602;628;46917;-73
2021/12/13 13:37:50;;;;;;;;;16.50;14.50;;;;;11.64;55.06;100939.94;146605;604;46011;-78
2021/12/13 13:40:42;;;;;;;;;21.00;18.25;;;;;11.59;55.30;100939.72;146601;605;46033;-77
2021/12/13 13:43:48;;;;;;;;;20.75;18.50;;;;;11.59;55.60;100952.72;146601;608;46020;-76
2021/12/13 13:46:42;;;;;;;;;24.00;20.75;;;;;11.53;55.46;100953.28;146606;564;46016;-77
2021/12/13 13:49:35;;;;;;;;;28.75;26.50;;;;;11.48;55.83;100964.25;146593;695;46010;-78
2021/12/13 13:52:33;;;;;;;;;29.00;26.50;;;;;11.45;56.25;100969.28;146606;582;45033;-76
2021/12/13 13:55:55;;;;;;;;;20.00;17.25;;;;;11.45;56.65;100970.16;146605;592;46020;-75
2021/12/13 13:58:52;;;;;;;;;29.00;24.75;;;;;11.48;56.38;100970.31;146603;584;46017;-77
2021/12/13 14:02:14;;;;;;;;;23.00;20.50;;;;;10.33;56.51;100771.47;146605;622;46010;-76
2021/12/13 14:05:13;;;;;;;;;23.75;22.50;;;;;11.48;56.14;100982.41;146605;595;46012;-75
2021/12/13 14:08:20;;;;;;;;;29.50;27.00;;;;;11.47;55.12;100981.53;146603;576;46021;-77
2021/12/13 14:11:21;;;;;;;;;25.50;24.00;;;;;11.45;54.36;100983.16;146601;588;46917;-77
2021/12/13 14:14:14;;;;;;;;;25.50;25.25;;;;;11.44;55.54;100981.38;146601;592;46020;-76
2021/12/13 14:17:07;;;;;;;;;24.75;20.50;;;;;11.44;53.44;100983.97;146603;575;46014;-76